Alvin, Illinois
Current Conditions -  °F | °C
As of 3:55 PM on Saturday 25 Oct 2014 (Local Time) from KDNV Reporting Station
Clear Clear  
Wind Chill: 75°   Ceiling: Unl
Heat Index: 75°   Visibility: 7mi
Dew Point: 46°   Wind: 10mph
Humidity: 36%   Direction: 300°WNW
Pressure: 29.93"   Gusts: NA
Location:  40.31°N, 87.61°W
Report Text: KDNV 252055Z AUTO 30009KT 7SM CLR 24/08 A2993 RMK AO2 T02400079
Loading
Personal Weather Stations






























Interactive Weather Map
Tropical Storm Tracking
New forecast layout! Learn more

10-Day Weather Forecast

Advertisements
Track Severe Weather on mobile